createdAt,value
2023-01-05T00:02:55.371Z,26.17
2023-01-05T00:08:00.424Z,28.75
2023-01-05T00:13:21.550Z,33.63
2023-01-05T00:18:44.519Z,32.40
2023-01-05T00:23:46.219Z,26.67
2023-01-05T00:28:48.182Z,28.45
2023-01-05T00:33:50.030Z,26.05
2023-01-05T00:38:51.847Z,33.20
2023-01-05T00:43:55.049Z,26.23
2023-01-05T00:48:57.012Z,29.38
2023-01-05T00:53:58.932Z,25.88
2023-01-05T00:59:01.015Z,32.35
2023-01-05T01:04:02.964Z,31.50
2023-01-05T01:09:05.751Z,25.52
2023-01-05T01:14:08.962Z,23.20
2023-01-05T01:19:16.945Z,30.35
2023-01-05T01:24:27.985Z,38.47
2023-01-05T01:29:32.815Z,25.98
2023-01-05T01:34:35.011Z,33.97
2023-01-05T01:39:37.567Z,28.05
2023-01-05T01:44:58.527Z,26.30
2023-01-05T01:50:36.061Z,31.55
2023-01-05T01:55:39.556Z,24.08
2023-01-05T02:00:41.334Z,33.47
2023-01-05T02:05:43.305Z,30.23
2023-01-05T02:11:09.454Z,36.88
2023-01-05T02:16:43.150Z,30.17
2023-01-05T02:22:18.824Z,28.60
2023-01-05T02:27:37.101Z,36.38
2023-01-05T02:33:01.624Z,25.58
2023-01-05T02:38:19.204Z,30.95
2023-01-05T02:43:21.447Z,31.05
2023-01-05T02:48:23.373Z,29.77
2023-01-05T02:53:28.070Z,28.88
2023-01-05T02:58:37.086Z,35.50
2023-01-05T03:03:46.018Z,26.80
2023-01-05T03:08:58.649Z,31.30
2023-01-05T03:14:12.655Z,37.35
2023-01-05T03:19:35.711Z,34.72
2023-01-05T03:24:58.802Z,36.28
2023-01-05T03:30:19.465Z,29.60
2023-01-05T03:35:30.524Z,28.23
2023-01-05T03:40:37.071Z,30.75
2023-01-05T03:45:44.684Z,33.35
2023-01-05T03:50:54.654Z,31.08
2023-01-05T03:55:58.500Z,32.42
2023-01-05T04:01:00.714Z,31.77
2023-01-05T04:06:04.006Z,29.65
2023-01-05T04:11:13.447Z,28.83
2023-01-05T04:16:15.928Z,22.30
2023-01-05T04:21:18.231Z,41.55
2023-01-05T04:26:20.164Z,28.58
2023-01-05T04:31:24.561Z,25.52
2023-01-05T04:36:28.676Z,28.75
2023-01-05T04:41:32.485Z,29.15
2023-01-05T04:46:34.358Z,36.78
2023-01-05T04:51:37.391Z,25.83
2023-01-05T04:56:40.837Z,35.08
2023-01-05T05:01:43.619Z,26.23
2023-01-05T05:06:47.656Z,31.15
2023-01-05T05:11:50.076Z,33.95
2023-01-05T05:16:55.519Z,24.17
2023-01-05T05:21:58.285Z,29.77
2023-01-05T05:27:01.516Z,36.75
2023-01-05T05:32:04.493Z,26.48
2023-01-05T05:37:06.785Z,32.10
2023-01-05T05:42:08.506Z,32.17
2023-01-05T05:47:10.148Z,27.40
2023-01-05T05:52:11.762Z,25.33
2023-01-05T05:57:13.592Z,32.65
2023-01-05T06:02:24.519Z,28.70
2023-01-05T06:07:27.523Z,25.73
2023-01-05T06:12:29.145Z,29.35
2023-01-05T06:17:30.959Z,31.95
2023-01-05T06:22:32.730Z,26.67
2023-01-05T06:27:34.558Z,32.13
2023-01-05T06:32:36.257Z,28.95
2023-01-05T06:37:37.949Z,24.83
2023-01-05T06:42:40.055Z,27.42
2023-01-05T06:47:42.305Z,27.20
2023-01-05T06:52:43.976Z,27.60
2023-01-05T06:57:46.004Z,22.25
2023-01-05T07:02:47.751Z,27.80
2023-01-05T07:07:49.332Z,21.77
2023-01-05T07:12:50.983Z,24.83
2023-01-05T07:17:52.742Z,25.10
2023-01-05T07:22:54.359Z,25.60
2023-01-05T07:27:55.984Z,23.73
2023-01-05T07:33:01.171Z,22.02
2023-01-05T07:38:02.811Z,26.40
2023-01-05T07:43:05.225Z,28.10
2023-01-05T07:48:06.963Z,22.92
2023-01-05T07:53:08.600Z,28.92
2023-01-05T07:58:10.314Z,28.17
2023-01-05T08:03:12.018Z,29.13
2023-01-05T08:08:19.090Z,30.05
2023-01-05T08:13:42.718Z,29.75
2023-01-05T08:18:44.453Z,27.17
2023-01-05T08:23:46.169Z,33.38
2023-01-05T08:28:47.922Z,30.38
2023-01-05T08:33:50.473Z,32.10
2023-01-05T08:38:53.524Z,31.65
2023-01-05T08:43:57.478Z,32.08
2023-01-05T08:49:01.752Z,33.20
2023-01-05T08:54:03.518Z,28.77
2023-01-05T08:59:05.247Z,33.00
2023-01-05T09:04:08.935Z,24.33
2023-01-05T09:09:10.659Z,23.30
2023-01-05T09:14:15.135Z,26.38
2023-01-05T09:19:17.097Z,28.83
2023-01-05T09:24:19.398Z,20.70
2023-01-05T09:29:21.358Z,34.67
2023-01-05T09:34:23.147Z,23.75
2023-01-05T09:39:25.113Z,30.00
2023-01-05T09:44:30.250Z,29.38
2023-01-05T09:49:34.183Z,27.13
2023-01-05T09:54:37.826Z,26.17
2023-01-05T09:59:43.974Z,28.63
2023-01-05T10:04:46.910Z,28.88
2023-01-05T10:09:49.599Z,27.10
2023-01-05T10:14:58.770Z,26.85
2023-01-05T10:20:00.520Z,27.07
2023-01-05T10:25:19.100Z,27.67
2023-01-05T10:30:27.339Z,24.80
2023-01-05T10:36:00.334Z,26.67
2023-01-05T10:41:09.967Z,28.23
2023-01-05T10:46:35.416Z,24.73
2023-01-05T10:51:40.005Z,27.58
2023-01-05T10:56:41.663Z,37.03
2023-01-05T11:01:46.907Z,28.13
2023-01-05T11:06:49.485Z,28.92
2023-01-05T11:11:59.407Z,31.67
2023-01-05T11:22:04.667Z,40.97
2023-01-05T11:27:21.749Z,25.05
2023-01-05T11:32:23.586Z,31.70
2023-01-05T11:37:26.618Z,28.92
2023-01-05T11:42:34.438Z,30.45
2023-01-05T11:47:44.898Z,30.50
2023-01-05T11:52:54.174Z,26.98
2023-01-05T11:58:12.359Z,26.93
2023-01-05T12:03:23.058Z,30.67
2023-01-05T12:08:30.975Z,35.65
2023-01-05T12:13:58.799Z,29.40
2023-01-05T12:19:12.740Z,41.22
2023-01-05T12:24:36.314Z,34.67
2023-01-05T12:31:34.459Z,34.05
2023-01-05T12:35:52.091Z,28.77
2023-01-05T12:40:56.755Z,30.88
2023-01-05T12:46:04.871Z,37.90
2023-01-05T12:51:16.743Z,30.25
2023-01-05T12:56:25.963Z,33.95
2023-01-05T13:01:31.600Z,31.00
2023-01-05T13:06:42.687Z,30.02
2023-01-05T13:11:49.094Z,34.40
2023-01-05T13:16:58.496Z,34.10
2023-01-05T13:22:05.000Z,26.95
2023-01-05T13:27:06.735Z,32.97
2023-01-05T13:32:37.563Z,34.42
2023-01-05T13:38:07.848Z,33.63
2023-01-05T13:43:30.869Z,34.35
2023-01-05T13:49:03.305Z,35.83
2023-01-05T13:54:14.232Z,26.13
2023-01-05T13:59:35.835Z,38.88
2023-01-05T14:04:46.612Z,33.70
2023-01-05T14:09:52.995Z,29.10
2023-01-05T14:15:01.217Z,27.45
2023-01-05T14:20:03.244Z,31.35
2023-01-05T14:25:39.555Z,30.40
2023-01-05T14:30:41.363Z,27.67
2023-01-05T14:35:44.434Z,35.13
2023-01-05T14:41:15.861Z,25.75
2023-01-05T14:46:18.578Z,25.67
2023-01-05T14:51:26.308Z,26.90
2023-01-05T14:56:38.547Z,22.20
2023-01-05T15:01:50.215Z,25.05
2023-01-05T15:07:26.278Z,28.13
2023-01-05T15:13:21.075Z,24.73
2023-01-05T15:18:31.855Z,22.17
2023-01-05T15:23:42.974Z,25.77
2023-01-05T15:29:03.380Z,20.23
2023-01-05T15:34:21.129Z,23.52
2023-01-05T15:39:33.478Z,21.40
2023-01-05T15:44:44.354Z,16.92
2023-01-05T15:49:47.544Z,20.27
2023-01-05T15:55:19.245Z,18.42
2023-01-05T16:00:28.059Z,17.00
2023-01-05T16:05:35.942Z,16.67
2023-01-05T16:10:42.010Z,19.63
2023-01-05T16:15:57.327Z,20.15
2023-01-05T16:21:05.025Z,22.48
2023-01-05T16:26:15.098Z,21.13
2023-01-05T16:31:33.755Z,14.13
2023-01-05T16:36:35.398Z,16.10
2023-01-05T16:41:57.050Z,19.33
2023-01-05T16:47:33.406Z,18.38
2023-01-05T16:52:45.942Z,16.63
2023-01-05T16:57:48.314Z,26.35
2023-01-05T17:02:50.210Z,19.08
2023-01-05T17:07:57.824Z,16.80
2023-01-05T17:13:06.720Z,19.65
2023-01-05T17:23:28.114Z,18.42
2023-01-05T17:28:29.792Z,13.48
2023-01-05T17:33:31.512Z,21.02
2023-01-05T17:38:33.199Z,17.15
2023-01-05T17:43:34.820Z,15.45
2023-01-05T17:48:36.410Z,17.13
2023-01-05T17:53:38.085Z,16.40
2023-01-05T17:58:39.723Z,13.50
2023-01-05T18:03:41.409Z,17.42
2023-01-05T18:08:43.673Z,15.27
2023-01-05T18:13:45.537Z,13.73
2023-01-05T18:18:47.187Z,7.93
2023-01-05T18:23:48.835Z,10.18
2023-01-05T18:28:52.579Z,10.32
2023-01-05T18:33:54.364Z,8.02
2023-01-05T18:38:56.351Z,10.45
2023-01-05T18:43:58.167Z,8.80
2023-01-05T18:48:59.808Z,14.10
2023-01-05T18:54:02.514Z,8.93
2023-01-05T18:59:04.274Z,11.18
2023-01-05T19:04:07.104Z,10.25
2023-01-05T19:09:11.318Z,11.27
2023-01-05T19:14:14.691Z,11.35
2023-01-05T19:19:20.137Z,15.35
2023-01-05T19:24:25.375Z,11.80
2023-01-05T19:29:27.162Z,14.55
2023-01-05T19:34:31.323Z,16.45
2023-01-05T19:39:32.987Z,17.20
2023-01-05T19:44:34.593Z,16.80
2023-01-05T19:49:36.264Z,12.70
2023-01-05T19:54:39.390Z,14.65
2023-01-05T19:59:41.061Z,14.85
2023-01-05T20:04:45.480Z,20.33
2023-01-05T20:09:51.381Z,19.50
2023-01-05T20:14:53.124Z,16.50
2023-01-05T20:19:54.933Z,18.55
2023-01-05T20:24:56.549Z,17.80
2023-01-05T20:30:01.111Z,22.27
2023-01-05T20:35:02.867Z,19.55
2023-01-05T20:40:05.550Z,25.38
2023-01-05T20:45:08.006Z,21.98
2023-01-05T20:50:12.003Z,23.88
2023-01-05T20:55:13.726Z,25.63
2023-01-05T21:00:16.707Z,15.35
2023-01-05T21:05:18.542Z,23.10
2023-01-05T21:10:20.544Z,19.30
2023-01-05T21:15:24.603Z,18.35
2023-01-05T21:20:27.813Z,21.45
2023-01-05T21:25:29.828Z,20.88
2023-01-05T21:30:51.564Z,16.88
2023-01-05T21:35:56.434Z,18.90
2023-01-05T21:41:06.169Z,23.27
2023-01-05T21:46:14.798Z,12.02
2023-01-05T21:51:34.820Z,18.67
2023-01-05T21:56:40.282Z,20.10
2023-01-05T22:01:41.869Z,17.63
2023-01-05T22:06:43.895Z,12.27
2023-01-05T22:11:45.666Z,17.40
2023-01-05T22:16:47.388Z,18.23
2023-01-05T22:21:49.163Z,21.13
2023-01-05T22:26:50.947Z,12.77
2023-01-05T22:31:52.920Z,7.55
2023-01-05T22:36:54.610Z,9.55
2023-01-05T22:41:56.320Z,9.27
2023-01-05T22:46:57.992Z,10.27
2023-01-05T22:51:59.683Z,9.82
2023-01-05T22:57:01.352Z,10.18
2023-01-05T23:02:03.090Z,12.63
2023-01-05T23:07:04.696Z,9.15
2023-01-05T23:12:06.473Z,11.63
2023-01-05T23:17:12.246Z,11.50
2023-01-05T23:22:13.950Z,14.45
2023-01-05T23:27:15.597Z,13.68
2023-01-05T23:32:17.259Z,8.02
2023-01-05T23:37:18.889Z,6.18
2023-01-05T23:42:39.017Z,5.65
2023-01-05T23:47:40.894Z,7.85
2023-01-05T23:52:42.593Z,8.90
2023-01-05T23:57:46.595Z,10.98
